sensor_id;sensor_type;location;lat;lon;timestamp;pressure;altitude;pressure_sealevel;temperature;humidity
24422;BME280;12600;53.326;-6.298;2022-12-07T00:02:48;102421.03;;;6.28;82.76
24422;BME280;12600;53.326;-6.298;2022-12-07T00:05:37;102423.63;;;6.23;82.72
24422;BME280;12600;53.326;-6.298;2022-12-07T00:08:28;102416.19;;;6.18;82.94
24422;BME280;12600;53.326;-6.298;2022-12-07T00:11:19;102417.38;;;6.10;83.00
24422;BME280;12600;53.326;-6.298;2022-12-07T00:14:13;102407.69;;;6.03;82.75
24422;BME280;12600;53.326;-6.298;2022-12-07T00:17:03;102405.69;;;5.98;82.99
24422;BME280;12600;53.326;-6.298;2022-12-07T00:19:52;102404.50;;;5.94;82.91
24422;BME280;12600;53.326;-6.298;2022-12-07T00:22:42;102408.88;;;5.95;83.06
24422;BME280;12600;53.326;-6.298;2022-12-07T00:25:32;102412.50;;;5.89;83.42
24422;BME280;12600;53.326;-6.298;2022-12-07T00:28:22;102421.44;;;5.89;83.63
24422;BME280;12600;53.326;-6.298;2022-12-07T00:31:13;102407.66;;;5.79;83.67
24422;BME280;12600;53.326;-6.298;2022-12-07T00:34:02;102397.16;;;5.71;83.52
24422;BME280;12600;53.326;-6.298;2022-12-07T00:36:51;102403.97;;;5.74;83.57
24422;BME280;12600;53.326;-6.298;2022-12-07T00:39:41;102403.63;;;5.70;83.80
24422;BME280;12600;53.326;-6.298;2022-12-07T00:42:32;102399.47;;;5.68;83.61
24422;BME280;12600;53.326;-6.298;2022-12-07T00:45:21;102401.38;;;5.67;84.17
24422;BME280;12600;53.326;-6.298;2022-12-07T00:48:10;102404.31;;;5.66;84.22
24422;BME280;12600;53.326;-6.298;2022-12-07T00:51:00;102405.16;;;5.66;84.65
24422;BME280;12600;53.326;-6.298;2022-12-07T00:53:50;102388.63;;;5.68;84.67
24422;BME280;12600;53.326;-6.298;2022-12-07T00:56:40;102389.69;;;5.67;84.19
24422;BME280;12600;53.326;-6.298;2022-12-07T00:59:30;102398.44;;;5.80;84.46
24422;BME280;12600;53.326;-6.298;2022-12-07T01:02:20;102393.25;;;5.79;84.74
24422;BME280;12600;53.326;-6.298;2022-12-07T01:05:09;102399.75;;;5.89;84.89
24422;BME280;12600;53.326;-6.298;2022-12-07T01:07:59;102397.03;;;5.89;85.00
24422;BME280;12600;53.326;-6.298;2022-12-07T01:10:48;102401.09;;;5.99;84.49
24422;BME280;12600;53.326;-6.298;2022-12-07T01:13:38;102397.91;;;6.02;85.01
24422;BME280;12600;53.326;-6.298;2022-12-07T01:16:31;102361.31;;;5.81;84.83
24422;BME280;12600;53.326;-6.298;2022-12-07T01:19:21;102401.44;;;6.02;83.95
24422;BME280;12600;53.326;-6.298;2022-12-07T01:22:10;102400.97;;;6.05;84.54
24422;BME280;12600;53.326;-6.298;2022-12-07T01:24:59;102405.91;;;6.08;84.35
24422;BME280;12600;53.326;-6.298;2022-12-07T01:27:49;102403.44;;;6.07;84.63
24422;BME280;12600;53.326;-6.298;2022-12-07T01:30:38;102405.19;;;6.01;84.86
24422;BME280;12600;53.326;-6.298;2022-12-07T01:33:32;102391.06;;;5.99;84.75
24422;BME280;12600;53.326;-6.298;2022-12-07T01:36:24;102383.50;;;6.01;84.38
24422;BME280;12600;53.326;-6.298;2022-12-07T01:39:14;102387.16;;;6.07;84.33
24422;BME280;12600;53.326;-6.298;2022-12-07T01:42:03;102389.63;;;6.08;84.12
24422;BME280;12600;53.326;-6.298;2022-12-07T01:45:44;102383.38;;;6.08;83.86
24422;BME280;12600;53.326;-6.298;2022-12-07T01:48:38;102376.06;;;6.08;84.06
24422;BME280;12600;53.326;-6.298;2022-12-07T01:51:30;102377.13;;;6.07;83.47
24422;BME280;12600;53.326;-6.298;2022-12-07T01:54:21;102370.78;;;6.02;84.26
24422;BME280;12600;53.326;-6.298;2022-12-07T01:57:11;102368.53;;;5.99;84.25
24422;BME280;12600;53.326;-6.298;2022-12-07T02:00:01;102376.41;;;6.00;83.86
24422;BME280;12600;53.326;-6.298;2022-12-07T02:03:05;102369.25;;;5.94;83.87
24422;BME280;12600;53.326;-6.298;2022-12-07T02:05:58;102375.59;;;6.00;83.92
24422;BME280;12600;53.326;-6.298;2022-12-07T02:08:49;102377.25;;;6.01;83.50
24422;BME280;12600;53.326;-6.298;2022-12-07T02:11:39;102379.75;;;6.02;82.92
24422;BME280;12600;53.326;-6.298;2022-12-07T02:14:28;102367.22;;;6.01;83.28
24422;BME280;12600;53.326;-6.298;2022-12-07T02:17:24;102357.34;;;5.95;82.49
24422;BME280;12600;53.326;-6.298;2022-12-07T02:20:29;102360.97;;;6.01;83.42
24422;BME280;12600;53.326;-6.298;2022-12-07T02:23:49;102361.69;;;5.96;82.77
24422;BME280;12600;53.326;-6.298;2022-12-07T02:27:07;102359.44;;;5.93;82.21
24422;BME280;12600;53.326;-6.298;2022-12-07T02:30:03;102352.81;;;5.89;82.58
24422;BME280;12600;53.326;-6.298;2022-12-07T02:32:59;102350.25;;;5.94;82.96
24422;BME280;12600;53.326;-6.298;2022-12-07T02:35:55;102346.94;;;5.92;82.94
24422;BME280;12600;53.326;-6.298;2022-12-07T02:38:52;102350.03;;;5.96;83.08
24422;BME280;12600;53.326;-6.298;2022-12-07T02:41:47;102344.69;;;6.01;83.26
24422;BME280;12600;53.326;-6.298;2022-12-07T02:44:39;102346.81;;;5.99;82.97
24422;BME280;12600;53.326;-6.298;2022-12-07T02:47:32;102340.31;;;6.00;82.62
24422;BME280;12600;53.326;-6.298;2022-12-07T02:50:22;102347.41;;;6.01;82.80
24422;BME280;12600;53.326;-6.298;2022-12-07T02:53:34;102341.88;;;5.96;82.53
24422;BME280;12600;53.326;-6.298;2022-12-07T02:56:30;102336.31;;;5.91;82.55
24422;BME280;12600;53.326;-6.298;2022-12-07T02:59:33;102340.44;;;5.93;82.94
24422;BME280;12600;53.326;-6.298;2022-12-07T03:02:35;102331.47;;;5.93;82.59
24422;BME280;12600;53.326;-6.298;2022-12-07T03:05:48;102337.72;;;5.93;82.27
24422;BME280;12600;53.326;-6.298;2022-12-07T03:08:51;102332.75;;;5.90;82.93
24422;BME280;12600;53.326;-6.298;2022-12-07T03:11:48;102334.88;;;5.88;82.88
24422;BME280;12600;53.326;-6.298;2022-12-07T03:14:44;102336.16;;;5.85;82.74
24422;BME280;12600;53.326;-6.298;2022-12-07T03:17:40;102337.03;;;5.86;82.13
24422;BME280;12600;53.326;-6.298;2022-12-07T03:20:33;102334.31;;;5.86;81.48
24422;BME280;12600;53.326;-6.298;2022-12-07T03:23:25;102334.19;;;5.81;82.35
24422;BME280;12600;53.326;-6.298;2022-12-07T03:26:17;102336.06;;;5.80;82.62
24422;BME280;12600;53.326;-6.298;2022-12-07T03:29:19;102316.38;;;5.73;82.00
24422;BME280;12600;53.326;-6.298;2022-12-07T03:32:16;102331.44;;;5.69;82.02
24422;BME280;12600;53.326;-6.298;2022-12-07T03:35:17;102323.09;;;5.71;82.41
24422;BME280;12600;53.326;-6.298;2022-12-07T03:38:15;102333.13;;;5.70;82.02
24422;BME280;12600;53.326;-6.298;2022-12-07T03:41:11;102331.56;;;5.74;82.17
24422;BME280;12600;53.326;-6.298;2022-12-07T03:44:06;102324.84;;;5.77;82.54
24422;BME280;12600;53.326;-6.298;2022-12-07T03:46:59;102326.25;;;5.68;82.01
24422;BME280;12600;53.326;-6.298;2022-12-07T03:49:53;102324.75;;;5.72;82.44
24422;BME280;12600;53.326;-6.298;2022-12-07T03:52:48;102321.91;;;5.67;82.28
24422;BME280;12600;53.326;-6.298;2022-12-07T03:55:43;102314.25;;;5.64;81.83
24422;BME280;12600;53.326;-6.298;2022-12-07T03:58:35;102318.13;;;5.68;82.43
24422;BME280;12600;53.326;-6.298;2022-12-07T04:01:25;102320.25;;;5.66;82.12
24422;BME280;12600;53.326;-6.298;2022-12-07T04:04:15;102307.63;;;5.59;82.03
24422;BME280;12600;53.326;-6.298;2022-12-07T04:07:04;102311.53;;;5.64;82.17
24422;BME280;12600;53.326;-6.298;2022-12-07T04:09:55;102298.81;;;5.64;82.55
24422;BME280;12600;53.326;-6.298;2022-12-07T04:12:44;102310.72;;;5.63;82.17
24422;BME280;12600;53.326;-6.298;2022-12-07T04:15:33;102298.22;;;5.62;82.11
24422;BME280;12600;53.326;-6.298;2022-12-07T04:18:23;102295.72;;;5.60;82.39
24422;BME280;12600;53.326;-6.298;2022-12-07T04:21:12;102294.09;;;5.59;82.70
24422;BME280;12600;53.326;-6.298;2022-12-07T04:24:02;102289.13;;;5.56;82.14
24422;BME280;12600;53.326;-6.298;2022-12-07T04:26:53;102303.16;;;5.53;82.71
24422;BME280;12600;53.326;-6.298;2022-12-07T04:29:43;102297.28;;;5.56;82.53
24422;BME280;12600;53.326;-6.298;2022-12-07T04:32:32;102292.19;;;5.48;82.39
24422;BME280;12600;53.326;-6.298;2022-12-07T04:35:21;102279.94;;;5.46;82.75
24422;BME280;12600;53.326;-6.298;2022-12-07T04:38:11;102290.66;;;5.52;82.75
24422;BME280;12600;53.326;-6.298;2022-12-07T04:41:05;102285.47;;;5.51;82.73
24422;BME280;12600;53.326;-6.298;2022-12-07T04:43:58;102277.09;;;5.52;82.83
24422;BME280;12600;53.326;-6.298;2022-12-07T04:46:49;102278.06;;;5.46;82.05
24422;BME280;12600;53.326;-6.298;2022-12-07T04:49:38;102277.59;;;5.49;82.01
24422;BME280;12600;53.326;-6.298;2022-12-07T04:52:28;102262.84;;;5.33;82.09
24422;BME280;12600;53.326;-6.298;2022-12-07T04:55:17;102279.09;;;5.45;82.45
24422;BME280;12600;53.326;-6.298;2022-12-07T04:58:07;102277.00;;;5.47;82.62
24422;BME280;12600;53.326;-6.298;2022-12-07T05:00:57;102271.34;;;5.49;82.25
24422;BME280;12600;53.326;-6.298;2022-12-07T05:03:47;102265.19;;;5.42;81.99
24422;BME280;12600;53.326;-6.298;2022-12-07T05:06:36;102268.88;;;5.47;82.32
24422;BME280;12600;53.326;-6.298;2022-12-07T05:09:26;102267.44;;;5.45;82.09
24422;BME280;12600;53.326;-6.298;2022-12-07T05:12:15;102273.22;;;5.48;82.02
24422;BME280;12600;53.326;-6.298;2022-12-07T05:15:05;102285.97;;;5.48;82.06
24422;BME280;12600;53.326;-6.298;2022-12-07T05:17:56;102281.13;;;5.38;82.25
24422;BME280;12600;53.326;-6.298;2022-12-07T05:20:46;102279.00;;;5.40;82.29
24422;BME280;12600;53.326;-6.298;2022-12-07T05:23:35;102278.28;;;5.45;81.83
24422;BME280;12600;53.326;-6.298;2022-12-07T05:26:24;102255.75;;;5.44;82.08
24422;BME280;12600;53.326;-6.298;2022-12-07T05:29:15;102260.84;;;5.52;82.12
24422;BME280;12600;53.326;-6.298;2022-12-07T05:32:05;102272.41;;;5.48;81.61
24422;BME280;12600;53.326;-6.298;2022-12-07T05:34:56;102279.22;;;5.50;81.60
24422;BME280;12600;53.326;-6.298;2022-12-07T05:37:46;102285.47;;;5.51;81.28
24422;BME280;12600;53.326;-6.298;2022-12-07T05:40:36;102287.94;;;5.52;82.15
24422;BME280;12600;53.326;-6.298;2022-12-07T05:43:26;102287.50;;;5.55;81.48
24422;BME280;12600;53.326;-6.298;2022-12-07T05:46:15;102289.00;;;5.51;81.54
24422;BME280;12600;53.326;-6.298;2022-12-07T05:49:04;102280.06;;;5.51;81.77
24422;BME280;12600;53.326;-6.298;2022-12-07T05:51:55;102280.97;;;5.45;81.95
24422;BME280;12600;53.326;-6.298;2022-12-07T05:54:44;102282.19;;;5.49;82.00
24422;BME280;12600;53.326;-6.298;2022-12-07T05:57:34;102284.06;;;5.48;81.86
24422;BME280;12600;53.326;-6.298;2022-12-07T06:00:24;102285.13;;;5.47;81.91
24422;BME280;12600;53.326;-6.298;2022-12-07T06:03:12;102278.06;;;5.46;81.98
24422;BME280;12600;53.326;-6.298;2022-12-07T06:06:02;102276.88;;;5.54;81.21
24422;BME280;12600;53.326;-6.298;2022-12-07T06:08:53;102275.00;;;5.54;81.28
24422;BME280;12600;53.326;-6.298;2022-12-07T06:11:42;102271.69;;;5.52;80.81
24422;BME280;12600;53.326;-6.298;2022-12-07T06:14:49;102268.75;;;5.54;80.99
24422;BME280;12600;53.326;-6.298;2022-12-07T06:17:38;102264.03;;;5.49;80.31
24422;BME280;12600;53.326;-6.298;2022-12-07T06:20:28;102259.19;;;5.51;80.80
24422;BME280;12600;53.326;-6.298;2022-12-07T06:23:17;102262.97;;;5.50;81.25
24422;BME280;12600;53.326;-6.298;2022-12-07T06:26:08;102255.31;;;5.47;80.83
24422;BME280;12600;53.326;-6.298;2022-12-07T06:28:57;102262.72;;;5.52;80.71
24422;BME280;12600;53.326;-6.298;2022-12-07T06:31:47;102260.13;;;5.45;81.19
24422;BME280;12600;53.326;-6.298;2022-12-07T06:34:36;102257.19;;;5.47;80.87
24422;BME280;12600;53.326;-6.298;2022-12-07T06:37:26;102260.50;;;5.49;81.17
24422;BME280;12600;53.326;-6.298;2022-12-07T06:40:15;102249.19;;;5.40;81.32
24422;BME280;12600;53.326;-6.298;2022-12-07T06:43:06;102260.13;;;5.45;81.32
24422;BME280;12600;53.326;-6.298;2022-12-07T06:45:55;102239.84;;;5.36;80.78
24422;BME280;12600;53.326;-6.298;2022-12-07T06:48:45;102255.28;;;5.36;81.08
24422;BME280;12600;53.326;-6.298;2022-12-07T06:51:34;102256.84;;;5.31;80.54
24422;BME280;12600;53.326;-6.298;2022-12-07T06:54:28;102257.09;;;5.30;80.42
24422;BME280;12600;53.326;-6.298;2022-12-07T06:57:18;102255.78;;;5.32;81.30
24422;BME280;12600;53.326;-6.298;2022-12-07T07:00:11;102260.63;;;5.30;80.96
24422;BME280;12600;53.326;-6.298;2022-12-07T07:03:08;102250.13;;;5.22;80.75
24422;BME280;12600;53.326;-6.298;2022-12-07T07:05:58;102252.59;;;5.24;81.23
24422;BME280;12600;53.326;-6.298;2022-12-07T07:08:47;102257.41;;;5.22;81.04
24422;BME280;12600;53.326;-6.298;2022-12-07T07:11:37;102255.25;;;5.12;80.87
24422;BME280;12600;53.326;-6.298;2022-12-07T07:14:26;102249.97;;;5.05;80.07
24422;BME280;12600;53.326;-6.298;2022-12-07T07:17:17;102264.22;;;5.01;79.73
24422;BME280;12600;53.326;-6.298;2022-12-07T07:20:07;102249.13;;;4.93;80.05
24422;BME280;12600;53.326;-6.298;2022-12-07T07:22:57;102247.31;;;4.87;80.75
24422;BME280;12600;53.326;-6.298;2022-12-07T07:25:47;102244.38;;;4.77;79.87
24422;BME280;12600;53.326;-6.298;2022-12-07T07:28:36;102242.56;;;4.71;80.94
24422;BME280;12600;53.326;-6.298;2022-12-07T07:31:26;102243.06;;;4.68;80.57
24422;BME280;12600;53.326;-6.298;2022-12-07T07:34:17;102241.84;;;4.64;80.66
24422;BME280;12600;53.326;-6.298;2022-12-07T07:37:06;102248.56;;;4.61;81.13
24422;BME280;12600;53.326;-6.298;2022-12-07T07:39:56;102246.09;;;4.60;81.07
24422;BME280;12600;53.326;-6.298;2022-12-07T07:42:47;102240.41;;;4.49;80.95
24422;BME280;12600;53.326;-6.298;2022-12-07T07:45:37;102253.09;;;4.49;81.63
24422;BME280;12600;53.326;-6.298;2022-12-07T07:48:27;102256.72;;;4.43;81.41
24422;BME280;12600;53.326;-6.298;2022-12-07T07:51:17;102241.75;;;4.40;82.24
24422;BME280;12600;53.326;-6.298;2022-12-07T07:54:07;102249.19;;;4.45;81.92
24422;BME280;12600;53.326;-6.298;2022-12-07T07:56:56;102246.41;;;4.52;81.16
24422;BME280;12600;53.326;-6.298;2022-12-07T07:59:45;102247.00;;;4.54;81.52
24422;BME280;12600;53.326;-6.298;2022-12-07T08:02:35;102246.53;;;4.57;82.19
24422;BME280;12600;53.326;-6.298;2022-12-07T08:05:24;102248.66;;;4.55;81.52
24422;BME280;12600;53.326;-6.298;2022-12-07T08:08:15;102252.41;;;4.54;81.83
24422;BME280;12600;53.326;-6.298;2022-12-07T08:11:06;102248.97;;;4.46;81.70
24422;BME280;12600;53.326;-6.298;2022-12-07T08:13:56;102251.22;;;4.49;82.03
24422;BME280;12600;53.326;-6.298;2022-12-07T08:16:45;102253.00;;;4.56;81.86
24422;BME280;12600;53.326;-6.298;2022-12-07T08:19:34;102251.22;;;4.49;81.28
24422;BME280;12600;53.326;-6.298;2022-12-07T08:22:24;102258.28;;;4.51;81.51
24422;BME280;12600;53.326;-6.298;2022-12-07T08:25:15;102257.09;;;4.46;81.93
24422;BME280;12600;53.326;-6.298;2022-12-07T08:28:04;102255.44;;;4.45;81.96
24422;BME280;12600;53.326;-6.298;2022-12-07T08:30:59;102247.78;;;4.42;81.26
24422;BME280;12600;53.326;-6.298;2022-12-07T08:33:49;102254.97;;;4.48;81.52
24422;BME280;12600;53.326;-6.298;2022-12-07T08:36:38;102247.03;;;4.35;81.56
24422;BME280;12600;53.326;-6.298;2022-12-07T08:39:28;102247.63;;;4.37;81.09
24422;BME280;12600;53.326;-6.298;2022-12-07T08:42:20;102239.84;;;4.29;81.10
24422;BME280;12600;53.326;-6.298;2022-12-07T08:45:16;102242.91;;;4.33;81.66
24422;BME280;12600;53.326;-6.298;2022-12-07T08:48:14;102245.25;;;4.29;81.26
24422;BME280;12600;53.326;-6.298;2022-12-07T08:51:05;102243.81;;;4.27;81.70
24422;BME280;12600;53.326;-6.298;2022-12-07T08:53:55;102243.91;;;4.20;81.78
24422;BME280;12600;53.326;-6.298;2022-12-07T08:56:48;102241.03;;;4.15;81.36
24422;BME280;12600;53.326;-6.298;2022-12-07T08:59:47;102246.69;;;4.13;81.02
24422;BME280;12600;53.326;-6.298;2022-12-07T09:02:37;102242.09;;;4.14;80.95
24422;BME280;12600;53.326;-6.298;2022-12-07T09:05:26;102240.44;;;4.13;81.44
24422;BME280;12600;53.326;-6.298;2022-12-07T09:08:16;102239.63;;;4.12;81.44
24422;BME280;12600;53.326;-6.298;2022-12-07T09:11:05;102237.59;;;4.08;81.10
24422;BME280;12600;53.326;-6.298;2022-12-07T09:13:55;102240.75;;;4.05;80.62
24422;BME280;12600;53.326;-6.298;2022-12-07T09:16:46;102240.53;;;4.06;81.64
24422;BME280;12600;53.326;-6.298;2022-12-07T09:19:36;102238.13;;;3.98;80.91
24422;BME280;12600;53.326;-6.298;2022-12-07T09:22:29;102243.94;;;4.02;80.26
24422;BME280;12600;53.326;-6.298;2022-12-07T09:25:18;102246.84;;;4.00;80.60
24422;BME280;12600;53.326;-6.298;2022-12-07T09:28:07;102242.56;;;3.92;81.10
24422;BME280;12600;53.326;-6.298;2022-12-07T09:30:57;102246.72;;;3.95;80.91
24422;BME280;12600;53.326;-6.298;2022-12-07T09:34:08;102247.97;;;3.92;81.48
24422;BME280;12600;53.326;-6.298;2022-12-07T09:36:57;102240.91;;;3.91;80.85
24422;BME280;12600;53.326;-6.298;2022-12-07T09:39:46;102235.31;;;3.93;81.35
24422;BME280;12600;53.326;-6.298;2022-12-07T09:42:51;102247.31;;;3.97;80.24
24422;BME280;12600;53.326;-6.298;2022-12-07T09:45:41;102244.38;;;3.99;81.06
24422;BME280;12600;53.326;-6.298;2022-12-07T09:48:37;102243.09;;;4.01;80.69
24422;BME280;12600;53.326;-6.298;2022-12-07T09:51:29;102230.31;;;3.90;80.46
24422;BME280;12600;53.326;-6.298;2022-12-07T09:54:20;102244.75;;;4.02;80.11
24422;BME280;12600;53.326;-6.298;2022-12-07T09:57:11;102248.28;;;4.03;80.60
24422;BME280;12600;53.326;-6.298;2022-12-07T10:00:04;102243.09;;;4.01;80.84
24422;BME280;12600;53.326;-6.298;2022-12-07T10:02:58;102234.75;;;4.03;80.10
24422;BME280;12600;53.326;-6.298;2022-12-07T10:05:50;102238.06;;;4.05;80.90
24422;BME280;12600;53.326;-6.298;2022-12-07T10:08:42;102229.34;;;4.03;80.52
24422;BME280;12600;53.326;-6.298;2022-12-07T10:11:31;102224.53;;;4.05;81.00
24422;BME280;12600;53.326;-6.298;2022-12-07T10:14:20;102231.00;;;4.04;80.58
24422;BME280;12600;53.326;-6.298;2022-12-07T10:17:37;102233.41;;;4.12;80.99
24422;BME280;12600;53.326;-6.298;2022-12-07T10:20:28;102228.97;;;4.17;80.81
24422;BME280;12600;53.326;-6.298;2022-12-07T10:23:18;102233.25;;;4.25;81.11
24422;BME280;12600;53.326;-6.298;2022-12-07T10:26:31;102218.34;;;4.34;80.93
24422;BME280;12600;53.326;-6.298;2022-12-07T10:29:24;102224.59;;;4.46;80.78
24422;BME280;12600;53.326;-6.298;2022-12-07T10:32:31;102222.63;;;4.54;80.11
24422;BME280;12600;53.326;-6.298;2022-12-07T10:35:25;102223.59;;;4.59;80.73
24422;BME280;12600;53.326;-6.298;2022-12-07T10:38:17;102218.44;;;4.58;80.08
24422;BME280;12600;53.326;-6.298;2022-12-07T10:41:07;102212.19;;;4.57;80.15
24422;BME280;12600;53.326;-6.298;2022-12-07T10:43:58;102202.78;;;4.60;80.21
24422;BME280;12600;53.326;-6.298;2022-12-07T10:47:18;102204.19;;;4.62;79.90
24422;BME280;12600;53.326;-6.298;2022-12-07T10:50:47;102189.34;;;4.65;80.35
24422;BME280;12600;53.326;-6.298;2022-12-07T10:53:55;102189.13;;;4.66;80.30
24422;BME280;12600;53.326;-6.298;2022-12-07T10:57:09;102188.44;;;4.71;80.25
24422;BME280;12600;53.326;-6.298;2022-12-07T11:00:18;102174.88;;;4.71;79.98
24422;BME280;12600;53.326;-6.298;2022-12-07T11:03:37;102190.34;;;4.82;80.33
24422;BME280;12600;53.326;-6.298;2022-12-07T11:06:37;102191.06;;;4.89;80.39
24422;BME280;12600;53.326;-6.298;2022-12-07T11:09:55;102189.78;;;4.92;79.49
24422;BME280;12600;53.326;-6.298;2022-12-07T11:13:24;102179.66;;;4.99;80.06
24422;BME280;12600;53.326;-6.298;2022-12-07T11:16:28;102168.09;;;5.03;80.25
24422;BME280;12600;53.326;-6.298;2022-12-07T11:19:46;102172.47;;;5.04;79.58
24422;BME280;12600;53.326;-6.298;2022-12-07T11:22:48;102162.81;;;5.09;79.74
24422;BME280;12600;53.326;-6.298;2022-12-07T11:25:49;102178.03;;;5.21;79.41
24422;BME280;12600;53.326;-6.298;2022-12-07T11:29:09;102178.69;;;5.28;79.87
24422;BME280;12600;53.326;-6.298;2022-12-07T11:32:15;102168.56;;;5.36;79.73
24422;BME280;12600;53.326;-6.298;2022-12-07T11:35:15;102160.19;;;5.37;79.98
24422;BME280;12600;53.326;-6.298;2022-12-07T11:38:15;102160.91;;;5.44;79.39
24422;BME280;12600;53.326;-6.298;2022-12-07T11:41:11;102141.91;;;5.44;79.13
24422;BME280;12600;53.326;-6.298;2022-12-07T11:44:06;102156.16;;;5.63;79.05
24422;BME280;12600;53.326;-6.298;2022-12-07T11:47:02;102142.09;;;6.18;79.14
24422;BME280;12600;53.326;-6.298;2022-12-07T11:50:05;102128.50;;;7.36;79.07
24422;BME280;12600;53.326;-6.298;2022-12-07T11:53:03;102150.72;;;8.74;77.26
24422;BME280;12600;53.326;-6.298;2022-12-07T11:56:02;102124.06;;;9.71;76.05
24422;BME280;12600;53.326;-6.298;2022-12-07T11:58:56;102125.63;;;10.60;72.36
24422;BME280;12600;53.326;-6.298;2022-12-07T12:01:53;102103.38;;;11.23;73.79
24422;BME280;12600;53.326;-6.298;2022-12-07T12:04:55;102113.03;;;11.80;74.33
24422;BME280;12600;53.326;-6.298;2022-12-07T12:07:59;102097.00;;;12.07;71.28
24422;BME280;12600;53.326;-6.298;2022-12-07T12:11:22;102088.09;;;11.86;69.73
24422;BME280;12600;53.326;-6.298;2022-12-07T12:14:38;102098.41;;;11.35;64.35
24422;BME280;12600;53.326;-6.298;2022-12-07T12:18:02;102104.56;;;10.65;63.21
24422;BME280;12600;53.326;-6.298;2022-12-07T12:20:57;102112.69;;;10.15;68.69
24422;BME280;12600;53.326;-6.298;2022-12-07T12:23:55;102097.31;;;9.73;69.83
24422;BME280;12600;53.326;-6.298;2022-12-07T12:26:53;102101.72;;;9.27;64.77
24422;BME280;12600;53.326;-6.298;2022-12-07T12:29:45;102098.81;;;8.91;64.97
24422;BME280;12600;53.326;-6.298;2022-12-07T12:32:42;102095.63;;;8.67;66.85
24422;BME280;12600;53.326;-6.298;2022-12-07T12:35:35;102097.06;;;8.43;66.20
24422;BME280;12600;53.326;-6.298;2022-12-07T12:38:32;102083.31;;;8.32;67.91
24422;BME280;12600;53.326;-6.298;2022-12-07T12:41:55;102078.59;;;8.23;68.15
24422;BME280;12600;53.326;-6.298;2022-12-07T12:45:20;102083.84;;;8.29;68.39
24422;BME280;12600;53.326;-6.298;2022-12-07T12:48:28;102079.50;;;8.33;67.07
24422;BME280;12600;53.326;-6.298;2022-12-07T12:51:37;102067.06;;;8.37;66.74
24422;BME280;12600;53.326;-6.298;2022-12-07T12:54:30;102069.22;;;8.35;65.62
24422;BME280;12600;53.326;-6.298;2022-12-07T12:57:26;102067.50;;;8.29;64.63
24422;BME280;12600;53.326;-6.298;2022-12-07T13:00:18;102067.13;;;8.43;65.98
24422;BME280;12600;53.326;-6.298;2022-12-07T13:03:22;102050.47;;;8.39;65.54
24422;BME280;12600;53.326;-6.298;2022-12-07T13:06:31;102052.41;;;8.44;66.15
24422;BME280;12600;53.326;-6.298;2022-12-07T13:09:28;102059.41;;;8.34;65.53
24422;BME280;12600;53.326;-6.298;2022-12-07T13:12:19;102047.78;;;8.17;66.14
24422;BME280;12600;53.326;-6.298;2022-12-07T13:15:37;102050.34;;;8.02;66.34
24422;BME280;12600;53.326;-6.298;2022-12-07T13:18:36;102048.00;;;7.83;66.51
24422;BME280;12600;53.326;-6.298;2022-12-07T13:21:43;102039.41;;;7.70;67.23
24422;BME280;12600;53.326;-6.298;2022-12-07T13:24:34;102036.31;;;7.56;67.22
24422;BME280;12600;53.326;-6.298;2022-12-07T13:27:25;102035.34;;;7.45;67.06
24422;BME280;12600;53.326;-6.298;2022-12-07T13:30:18;102034.22;;;7.41;67.28
24422;BME280;12600;53.326;-6.298;2022-12-07T13:33:09;102037.47;;;7.38;67.55
24422;BME280;12600;53.326;-6.298;2022-12-07T13:35:59;102036.56;;;7.33;67.74
24422;BME280;12600;53.326;-6.298;2022-12-07T13:38:55;102033.22;;;7.25;67.88
24422;BME280;12600;53.326;-6.298;2022-12-07T13:41:51;102019.94;;;7.07;68.14
24422;BME280;12600;53.326;-6.298;2022-12-07T13:44:41;102020.06;;;7.17;68.14
24422;BME280;12600;53.326;-6.298;2022-12-07T13:47:35;102021.16;;;7.16;68.40
24422;BME280;12600;53.326;-6.298;2022-12-07T13:50:29;102014.88;;;7.16;67.60
24422;BME280;12600;53.326;-6.298;2022-12-07T13:53:19;102010.47;;;7.10;66.65
24422;BME280;12600;53.326;-6.298;2022-12-07T13:56:14;102004.28;;;7.14;67.05
24422;BME280;12600;53.326;-6.298;2022-12-07T13:59:07;102003.13;;;7.10;67.22
24422;BME280;12600;53.326;-6.298;2022-12-07T14:02:00;102009.38;;;7.11;66.40
24422;BME280;12600;53.326;-6.298;2022-12-07T14:04:50;102010.16;;;7.06;66.87
24422;BME280;12600;53.326;-6.298;2022-12-07T14:07:53;102008.75;;;7.04;65.92
24422;BME280;12600;53.326;-6.298;2022-12-07T14:10:55;101995.50;;;7.07;66.12
24422;BME280;12600;53.326;-6.298;2022-12-07T14:13:56;101985.06;;;6.99;65.63
24422;BME280;12600;53.326;-6.298;2022-12-07T14:16:58;101986.75;;;7.05;66.38
24422;BME280;12600;53.326;-6.298;2022-12-07T14:19:50;101985.06;;;6.99;66.24
24422;BME280;12600;53.326;-6.298;2022-12-07T14:22:42;101979.94;;;7.03;65.66
24422;BME280;12600;53.326;-6.298;2022-12-07T14:25:33;101963.38;;;7.04;66.19
24422;BME280;12600;53.326;-6.298;2022-12-07T14:28:28;101962.53;;;7.04;65.51
24422;BME280;12600;53.326;-6.298;2022-12-07T14:31:23;101958.97;;;6.98;65.54
24422;BME280;12600;53.326;-6.298;2022-12-07T14:34:20;101958.88;;;6.93;65.69
24422;BME280;12600;53.326;-6.298;2022-12-07T14:37:10;101956.19;;;6.93;66.24
24422;BME280;12600;53.326;-6.298;2022-12-07T14:39:59;101948.66;;;7.00;66.13
24422;BME280;12600;53.326;-6.298;2022-12-07T14:42:52;101942.66;;;6.98;66.23
24422;BME280;12600;53.326;-6.298;2022-12-07T14:45:43;101951.84;;;6.97;66.45
24422;BME280;12600;53.326;-6.298;2022-12-07T14:48:33;101962.25;;;7.00;66.28
24422;BME280;12600;53.326;-6.298;2022-12-07T14:51:46;101955.16;;;6.99;66.80
24422;BME280;12600;53.326;-6.298;2022-12-07T14:54:56;101955.16;;;6.99;67.01
24422;BME280;12600;53.326;-6.298;2022-12-07T14:57:45;101944.31;;;6.99;66.90
24422;BME280;12600;53.326;-6.298;2022-12-07T15:00:34;101945.94;;;7.00;66.94
24422;BME280;12600;53.326;-6.298;2022-12-07T15:03:24;101937.22;;;6.98;66.94
24422;BME280;12600;53.326;-6.298;2022-12-07T15:06:16;101937.72;;;6.95;67.23
24422;BME280;12600;53.326;-6.298;2022-12-07T15:09:08;101936.06;;;6.94;67.13
24422;BME280;12600;53.326;-6.298;2022-12-07T15:11:58;101932.09;;;7.01;66.79
24422;BME280;12600;53.326;-6.298;2022-12-07T15:14:47;101927.56;;;7.07;66.42